sensor_id;sensor_type;location;lat;lon;timestamp;temperature;humidity
54168;DHT22;68429;50.958;3.592;2023-03-14T00:00:47;9.90;99.90
54168;DHT22;68429;50.958;3.592;2023-03-14T00:03:12;9.90;99.90
54168;DHT22;68429;50.958;3.592;2023-03-14T00:05:38;9.90;99.90
54168;DHT22;68429;50.958;3.592;2023-03-14T00:08:04;9.80;99.90
54168;DHT22;68429;50.958;3.592;2023-03-14T00:10:30;9.80;99.90
54168;DHT22;68429;50.958;3.592;2023-03-14T00:12:56;9.80;99.90
54168;DHT22;68429;50.958;3.592;2023-03-14T00:15:22;9.80;99.90
54168;DHT22;68429;50.958;3.592;2023-03-14T00:17:47;9.80;99.90
54168;DHT22;68429;50.958;3.592;2023-03-14T00:20:13;9.80;99.90
54168;DHT22;68429;50.958;3.592;2023-03-14T00:22:39;9.80;99.90
54168;DHT22;68429;50.958;3.592;2023-03-14T00:25:07;9.80;99.90
54168;DHT22;68429;50.958;3.592;2023-03-14T00:27:33;9.80;99.90
54168;DHT22;68429;50.958;3.592;2023-03-14T00:29:59;9.80;99.90
54168;DHT22;68429;50.958;3.592;2023-03-14T00:32:25;9.80;99.90
54168;DHT22;68429;50.958;3.592;2023-03-14T00:34:51;9.70;99.90
54168;DHT22;68429;50.958;3.592;2023-03-14T00:37:16;9.70;99.90
54168;DHT22;68429;50.958;3.592;2023-03-14T00:39:43;9.70;99.90
54168;DHT22;68429;50.958;3.592;2023-03-14T00:42:08;9.70;99.90
54168;DHT22;68429;50.958;3.592;2023-03-14T00:44:34;9.70;99.90
54168;DHT22;68429;50.958;3.592;2023-03-14T00:47:00;9.70;99.90
54168;DHT22;68429;50.958;3.592;2023-03-14T00:49:26;9.60;99.90
54168;DHT22;68429;50.958;3.592;2023-03-14T00:51:52;9.70;99.90
54168;DHT22;68429;50.958;3.592;2023-03-14T00:54:20;9.60;99.90
54168;DHT22;68429;50.958;3.592;2023-03-14T00:56:46;9.70;99.90
54168;DHT22;68429;50.958;3.592;2023-03-14T00:59:12;9.80;99.90
54168;DHT22;68429;50.958;3.592;2023-03-14T01:01:39;9.80;99.90
54168;DHT22;68429;50.958;3.592;2023-03-14T01:04:04;9.90;99.90
54168;DHT22;68429;50.958;3.592;2023-03-14T01:06:30;9.90;99.90
54168;DHT22;68429;50.958;3.592;2023-03-14T01:08:57;9.90;99.90
54168;DHT22;68429;50.958;3.592;2023-03-14T01:11:28;9.90;99.90
54168;DHT22;68429;50.958;3.592;2023-03-14T01:13:55;9.90;99.90
54168;DHT22;68429;50.958;3.592;2023-03-14T01:16:22;9.90;99.90
54168;DHT22;68429;50.958;3.592;2023-03-14T01:18:48;9.80;99.90
54168;DHT22;68429;50.958;3.592;2023-03-14T01:21:21;9.80;99.90
54168;DHT22;68429;50.958;3.592;2023-03-14T01:23:48;9.70;99.90
54168;DHT22;68429;50.958;3.592;2023-03-14T01:26:17;9.70;99.90
54168;DHT22;68429;50.958;3.592;2023-03-14T01:28:47;9.70;99.90
54168;DHT22;68429;50.958;3.592;2023-03-14T01:31:14;9.70;99.90
54168;DHT22;68429;50.958;3.592;2023-03-14T01:33:40;9.70;99.90
54168;DHT22;68429;50.958;3.592;2023-03-14T01:36:06;9.80;99.90
54168;DHT22;68429;50.958;3.592;2023-03-14T01:38:33;9.70;99.90
54168;DHT22;68429;50.958;3.592;2023-03-14T01:41:00;9.70;99.90
54168;DHT22;68429;50.958;3.592;2023-03-14T01:43:26;9.70;99.90
54168;DHT22;68429;50.958;3.592;2023-03-14T01:51:50;9.80;99.90
54168;DHT22;68429;50.958;3.592;2023-03-14T01:54:19;9.80;99.90
54168;DHT22;68429;50.958;3.592;2023-03-14T01:56:52;9.80;99.90
54168;DHT22;68429;50.958;3.592;2023-03-14T01:59:18;9.90;99.90
54168;DHT22;68429;50.958;3.592;2023-03-14T02:01:46;9.80;99.90
54168;DHT22;68429;50.958;3.592;2023-03-14T02:04:13;9.90;99.90
54168;DHT22;68429;50.958;3.592;2023-03-14T02:06:49;9.90;99.90
54168;DHT22;68429;50.958;3.592;2023-03-14T02:09:15;9.90;99.90
54168;DHT22;68429;50.958;3.592;2023-03-14T02:11:41;9.90;99.90
54168;DHT22;68429;50.958;3.592;2023-03-14T02:14:12;9.90;99.90
54168;DHT22;68429;50.958;3.592;2023-03-14T02:16:39;9.90;99.90
54168;DHT22;68429;50.958;3.592;2023-03-14T02:19:05;9.90;99.90
54168;DHT22;68429;50.958;3.592;2023-03-14T02:21:47;9.90;99.90
54168;DHT22;68429;50.958;3.592;2023-03-14T02:24:31;9.90;99.90
54168;DHT22;68429;50.958;3.592;2023-03-14T02:27:13;9.80;99.90
54168;DHT22;68429;50.958;3.592;2023-03-14T02:32:33;9.80;99.90
54168;DHT22;68429;50.958;3.592;2023-03-14T02:35:03;9.70;99.90
54168;DHT22;68429;50.958;3.592;2023-03-14T02:37:41;9.70;99.90
54168;DHT22;68429;50.958;3.592;2023-03-14T02:40:08;9.70;99.90
54168;DHT22;68429;50.958;3.592;2023-03-14T02:42:34;9.60;99.90
54168;DHT22;68429;50.958;3.592;2023-03-14T02:47:50;9.50;99.90
54168;DHT22;68429;50.958;3.592;2023-03-14T02:50:20;9.50;99.90
54168;DHT22;68429;50.958;3.592;2023-03-14T02:52:48;9.50;99.90
54168;DHT22;68429;50.958;3.592;2023-03-14T02:55:14;9.50;99.90
54168;DHT22;68429;50.958;3.592;2023-03-14T02:57:39;9.50;99.90
54168;DHT22;68429;50.958;3.592;2023-03-14T03:00:05;9.50;99.90
54168;DHT22;68429;50.958;3.592;2023-03-14T03:02:32;9.50;99.90
54168;DHT22;68429;50.958;3.592;2023-03-14T03:04:57;9.60;99.90
54168;DHT22;68429;50.958;3.592;2023-03-14T03:07:23;9.60;99.90
54168;DHT22;68429;50.958;3.592;2023-03-14T03:09:49;9.60;99.90
54168;DHT22;68429;50.958;3.592;2023-03-14T03:12:15;9.60;99.90
54168;DHT22;68429;50.958;3.592;2023-03-14T03:14:40;9.50;99.90
54168;DHT22;68429;50.958;3.592;2023-03-14T03:17:06;9.60;99.90
54168;DHT22;68429;50.958;3.592;2023-03-14T03:19:33;9.50;99.90
54168;DHT22;68429;50.958;3.592;2023-03-14T03:21:58;9.50;99.90
54168;DHT22;68429;50.958;3.592;2023-03-14T03:24:25;9.40;99.90
54168;DHT22;68429;50.958;3.592;2023-03-14T03:26:51;9.40;99.90
54168;DHT22;68429;50.958;3.592;2023-03-14T03:29:17;9.50;99.90
54168;DHT22;68429;50.958;3.592;2023-03-14T03:31:42;9.50;99.90
54168;DHT22;68429;50.958;3.592;2023-03-14T03:34:11;9.50;99.90
54168;DHT22;68429;50.958;3.592;2023-03-14T03:36:37;9.50;99.90
54168;DHT22;68429;50.958;3.592;2023-03-14T03:39:02;9.60;99.90
54168;DHT22;68429;50.958;3.592;2023-03-14T03:41:29;9.60;99.90
54168;DHT22;68429;50.958;3.592;2023-03-14T03:43:56;9.60;99.90
54168;DHT22;68429;50.958;3.592;2023-03-14T03:46:21;9.60;99.90
54168;DHT22;68429;50.958;3.592;2023-03-14T03:48:47;9.70;99.90
54168;DHT22;68429;50.958;3.592;2023-03-14T03:51:14;9.70;99.90
54168;DHT22;68429;50.958;3.592;2023-03-14T03:53:41;9.70;99.90
54168;DHT22;68429;50.958;3.592;2023-03-14T03:56:08;9.60;99.90
54168;DHT22;68429;50.958;3.592;2023-03-14T03:58:33;9.60;99.90
54168;DHT22;68429;50.958;3.592;2023-03-14T04:00:59;9.60;99.90
54168;DHT22;68429;50.958;3.592;2023-03-14T04:03:25;9.50;99.90
54168;DHT22;68429;50.958;3.592;2023-03-14T04:06:02;9.50;99.90
54168;DHT22;68429;50.958;3.592;2023-03-14T04:08:28;9.50;99.90
54168;DHT22;68429;50.958;3.592;2023-03-14T04:10:59;9.50;99.90
54168;DHT22;68429;50.958;3.592;2023-03-14T04:13:25;9.60;99.90
54168;DHT22;68429;50.958;3.592;2023-03-14T04:15:51;9.50;99.90
54168;DHT22;68429;50.958;3.592;2023-03-14T04:18:18;9.50;99.90
54168;DHT22;68429;50.958;3.592;2023-03-14T04:20:44;9.60;99.90
54168;DHT22;68429;50.958;3.592;2023-03-14T04:23:09;9.60;99.90
54168;DHT22;68429;50.958;3.592;2023-03-14T04:25:35;9.60;99.90
54168;DHT22;68429;50.958;3.592;2023-03-14T04:28:01;9.60;99.90
54168;DHT22;68429;50.958;3.592;2023-03-14T04:30:27;9.70;99.90
54168;DHT22;68429;50.958;3.592;2023-03-14T04:32:53;9.80;99.90
54168;DHT22;68429;50.958;3.592;2023-03-14T04:35:18;9.90;99.90
54168;DHT22;68429;50.958;3.592;2023-03-14T04:37:44;9.90;99.90
54168;DHT22;68429;50.958;3.592;2023-03-14T04:40:10;10.00;99.90
54168;DHT22;68429;50.958;3.592;2023-03-14T04:42:36;10.00;99.90
54168;DHT22;68429;50.958;3.592;2023-03-14T04:45:02;10.10;99.90
54168;DHT22;68429;50.958;3.592;2023-03-14T04:47:28;10.00;99.90
54168;DHT22;68429;50.958;3.592;2023-03-14T04:49:54;10.10;99.90
54168;DHT22;68429;50.958;3.592;2023-03-14T04:52:20;10.00;99.90
54168;DHT22;68429;50.958;3.592;2023-03-14T04:54:45;10.00;99.90
54168;DHT22;68429;50.958;3.592;2023-03-14T04:57:11;10.10;99.90
54168;DHT22;68429;50.958;3.592;2023-03-14T04:59:37;10.00;99.90
54168;DHT22;68429;50.958;3.592;2023-03-14T05:02:02;10.00;99.90
54168;DHT22;68429;50.958;3.592;2023-03-14T05:04:28;10.10;99.90
54168;DHT22;68429;50.958;3.592;2023-03-14T05:06:54;10.10;99.90
54168;DHT22;68429;50.958;3.592;2023-03-14T05:09:20;10.10;99.90
54168;DHT22;68429;50.958;3.592;2023-03-14T05:11:46;10.10;99.90
54168;DHT22;68429;50.958;3.592;2023-03-14T05:14:11;10.00;99.90
54168;DHT22;68429;50.958;3.592;2023-03-14T05:16:37;10.00;99.90
54168;DHT22;68429;50.958;3.592;2023-03-14T05:19:03;9.90;99.90
54168;DHT22;68429;50.958;3.592;2023-03-14T05:21:28;9.80;99.90
54168;DHT22;68429;50.958;3.592;2023-03-14T05:23:54;9.80;99.90
54168;DHT22;68429;50.958;3.592;2023-03-14T05:26:20;9.70;99.90
54168;DHT22;68429;50.958;3.592;2023-03-14T05:28:45;9.70;99.90
54168;DHT22;68429;50.958;3.592;2023-03-14T05:31:11;9.60;99.90
54168;DHT22;68429;50.958;3.592;2023-03-14T05:33:37;9.60;99.90
54168;DHT22;68429;50.958;3.592;2023-03-14T05:36:03;9.70;99.90
54168;DHT22;68429;50.958;3.592;2023-03-14T05:38:29;9.70;99.90
54168;DHT22;68429;50.958;3.592;2023-03-14T05:40:54;9.70;99.90
54168;DHT22;68429;50.958;3.592;2023-03-14T05:43:20;9.40;99.90
54168;DHT22;68429;50.958;3.592;2023-03-14T05:45:46;9.00;99.90
54168;DHT22;68429;50.958;3.592;2023-03-14T05:48:11;8.80;99.90
54168;DHT22;68429;50.958;3.592;2023-03-14T05:50:37;8.60;99.90
54168;DHT22;68429;50.958;3.592;2023-03-14T05:53:03;8.40;99.90
54168;DHT22;68429;50.958;3.592;2023-03-14T05:55:28;8.30;99.90
54168;DHT22;68429;50.958;3.592;2023-03-14T05:57:54;8.20;99.90
54168;DHT22;68429;50.958;3.592;2023-03-14T06:00:21;8.20;99.90
54168;DHT22;68429;50.958;3.592;2023-03-14T06:02:47;8.10;99.90
54168;DHT22;68429;50.958;3.592;2023-03-14T06:05:12;8.00;99.90
54168;DHT22;68429;50.958;3.592;2023-03-14T06:07:38;8.00;99.90
54168;DHT22;68429;50.958;3.592;2023-03-14T06:10:04;7.80;99.90
54168;DHT22;68429;50.958;3.592;2023-03-14T06:12:30;7.70;99.90
54168;DHT22;68429;50.958;3.592;2023-03-14T06:14:56;7.70;99.90
54168;DHT22;68429;50.958;3.592;2023-03-14T06:17:22;7.50;99.90
54168;DHT22;68429;50.958;3.592;2023-03-14T06:19:47;7.30;99.90
54168;DHT22;68429;50.958;3.592;2023-03-14T06:22:13;7.30;99.90
54168;DHT22;68429;50.958;3.592;2023-03-14T06:24:39;7.30;99.90
54168;DHT22;68429;50.958;3.592;2023-03-14T06:27:04;7.30;99.90
54168;DHT22;68429;50.958;3.592;2023-03-14T06:29:30;7.30;99.90
54168;DHT22;68429;50.958;3.592;2023-03-14T06:31:56;7.30;99.90
54168;DHT22;68429;50.958;3.592;2023-03-14T06:34:21;7.30;99.90
54168;DHT22;68429;50.958;3.592;2023-03-14T06:36:47;7.30;99.90
54168;DHT22;68429;50.958;3.592;2023-03-14T06:39:13;7.30;99.90
54168;DHT22;68429;50.958;3.592;2023-03-14T06:41:39;7.30;99.90
54168;DHT22;68429;50.958;3.592;2023-03-14T06:44:04;7.30;99.90
54168;DHT22;68429;50.958;3.592;2023-03-14T06:46:31;7.20;99.90
54168;DHT22;68429;50.958;3.592;2023-03-14T06:48:56;7.20;99.90
54168;DHT22;68429;50.958;3.592;2023-03-14T06:51:22;7.20;99.90
54168;DHT22;68429;50.958;3.592;2023-03-14T06:53:48;7.20;99.90
54168;DHT22;68429;50.958;3.592;2023-03-14T06:56:14;7.20;99.90
54168;DHT22;68429;50.958;3.592;2023-03-14T06:58:42;7.20;99.90
54168;DHT22;68429;50.958;3.592;2023-03-14T07:01:21;7.30;99.90
54168;DHT22;68429;50.958;3.592;2023-03-14T07:03:48;7.30;99.90
54168;DHT22;68429;50.958;3.592;2023-03-14T07:06:13;7.40;99.90
54168;DHT22;68429;50.958;3.592;2023-03-14T07:08:39;7.30;99.90
54168;DHT22;68429;50.958;3.592;2023-03-14T07:11:05;7.30;99.90
54168;DHT22;68429;50.958;3.592;2023-03-14T07:13:31;7.30;99.90
54168;DHT22;68429;50.958;3.592;2023-03-14T07:15:56;7.30;99.90
54168;DHT22;68429;50.958;3.592;2023-03-14T07:18:22;7.30;99.90
54168;DHT22;68429;50.958;3.592;2023-03-14T07:20:48;7.30;99.90
54168;DHT22;68429;50.958;3.592;2023-03-14T07:23:13;7.30;99.90
54168;DHT22;68429;50.958;3.592;2023-03-14T07:25:39;7.30;99.90
54168;DHT22;68429;50.958;3.592;2023-03-14T07:28:05;7.20;99.90
54168;DHT22;68429;50.958;3.592;2023-03-14T07:30:30;7.20;99.90
54168;DHT22;68429;50.958;3.592;2023-03-14T07:32:56;7.10;99.90
54168;DHT22;68429;50.958;3.592;2023-03-14T07:35:21;7.10;99.90
54168;DHT22;68429;50.958;3.592;2023-03-14T07:37:47;7.00;99.90
54168;DHT22;68429;50.958;3.592;2023-03-14T07:40:13;7.00;99.90
54168;DHT22;68429;50.958;3.592;2023-03-14T07:42:41;7.00;99.90
54168;DHT22;68429;50.958;3.592;2023-03-14T07:45:07;7.00;99.90
54168;DHT22;68429;50.958;3.592;2023-03-14T07:47:33;6.90;99.90
54168;DHT22;68429;50.958;3.592;2023-03-14T07:49:59;6.90;99.90
54168;DHT22;68429;50.958;3.592;2023-03-14T07:52:24;6.80;99.90
54168;DHT22;68429;50.958;3.592;2023-03-14T07:54:50;6.80;99.90
54168;DHT22;68429;50.958;3.592;2023-03-14T07:57:16;6.80;99.90
54168;DHT22;68429;50.958;3.592;2023-03-14T07:59:42;6.90;99.90
54168;DHT22;68429;50.958;3.592;2023-03-14T08:02:11;6.80;99.90
54168;DHT22;68429;50.958;3.592;2023-03-14T08:04:38;6.70;99.90
54168;DHT22;68429;50.958;3.592;2023-03-14T08:07:04;6.80;99.90
54168;DHT22;68429;50.958;3.592;2023-03-14T08:09:29;6.70;99.90
54168;DHT22;68429;50.958;3.592;2023-03-14T08:11:55;6.70;99.90
54168;DHT22;68429;50.958;3.592;2023-03-14T08:14:21;6.60;99.90
54168;DHT22;68429;50.958;3.592;2023-03-14T08:16:49;6.60;99.90
54168;DHT22;68429;50.958;3.592;2023-03-14T08:19:15;6.60;99.90
54168;DHT22;68429;50.958;3.592;2023-03-14T08:21:41;6.50;99.90
54168;DHT22;68429;50.958;3.592;2023-03-14T08:24:07;6.50;99.90
54168;DHT22;68429;50.958;3.592;2023-03-14T08:26:33;6.40;99.90
54168;DHT22;68429;50.958;3.592;2023-03-14T08:28:58;6.50;99.90
54168;DHT22;68429;50.958;3.592;2023-03-14T08:31:24;6.50;99.90
54168;DHT22;68429;50.958;3.592;2023-03-14T08:33:50;6.50;99.90
54168;DHT22;68429;50.958;3.592;2023-03-14T08:36:18;6.50;99.90
54168;DHT22;68429;50.958;3.592;2023-03-14T08:38:44;6.50;99.90
54168;DHT22;68429;50.958;3.592;2023-03-14T08:41:10;6.50;99.90
54168;DHT22;68429;50.958;3.592;2023-03-14T08:43:36;6.50;99.90
54168;DHT22;68429;50.958;3.592;2023-03-14T08:46:02;6.60;99.90
54168;DHT22;68429;50.958;3.592;2023-03-14T08:48:29;6.60;99.90
54168;DHT22;68429;50.958;3.592;2023-03-14T08:50:56;6.70;99.90
54168;DHT22;68429;50.958;3.592;2023-03-14T08:53:22;6.70;99.90
54168;DHT22;68429;50.958;3.592;2023-03-14T08:55:53;6.80;99.90
54168;DHT22;68429;50.958;3.592;2023-03-14T08:58:19;6.70;99.90
54168;DHT22;68429;50.958;3.592;2023-03-14T09:00:45;6.90;99.90
54168;DHT22;68429;50.958;3.592;2023-03-14T09:03:10;7.10;99.90
54168;DHT22;68429;50.958;3.592;2023-03-14T09:05:36;7.20;99.90
54168;DHT22;68429;50.958;3.592;2023-03-14T09:08:02;7.20;99.90
54168;DHT22;68429;50.958;3.592;2023-03-14T09:10:28;7.10;99.90
54168;DHT22;68429;50.958;3.592;2023-03-14T09:12:54;7.10;99.90
54168;DHT22;68429;50.958;3.592;2023-03-14T09:15:19;7.00;99.90
54168;DHT22;68429;50.958;3.592;2023-03-14T09:17:45;7.00;99.90
54168;DHT22;68429;50.958;3.592;2023-03-14T09:20:11;7.00;99.90
54168;DHT22;68429;50.958;3.592;2023-03-14T09:22:37;7.10;99.90
54168;DHT22;68429;50.958;3.592;2023-03-14T09:25:06;7.00;99.90
54168;DHT22;68429;50.958;3.592;2023-03-14T09:27:32;6.90;99.90
54168;DHT22;68429;50.958;3.592;2023-03-14T09:29:57;6.80;99.90
54168;DHT22;68429;50.958;3.592;2023-03-14T09:32:23;6.80;99.90
54168;DHT22;68429;50.958;3.592;2023-03-14T09:34:49;6.90;99.90
54168;DHT22;68429;50.958;3.592;2023-03-14T09:37:14;7.20;99.90
54168;DHT22;68429;50.958;3.592;2023-03-14T09:39:41;7.30;99.90
54168;DHT22;68429;50.958;3.592;2023-03-14T09:42:10;7.50;99.90
54168;DHT22;68429;50.958;3.592;2023-03-14T09:44:41;7.50;99.90
54168;DHT22;68429;50.958;3.592;2023-03-14T09:47:12;7.40;99.90
54168;DHT22;68429;50.958;3.592;2023-03-14T09:49:40;7.40;99.90
54168;DHT22;68429;50.958;3.592;2023-03-14T09:52:22;7.40;99.90
54168;DHT22;68429;50.958;3.592;2023-03-14T09:57:39;8.10;99.90
54168;DHT22;68429;50.958;3.592;2023-03-14T10:02:43;8.80;99.90
54168;DHT22;68429;50.958;3.592;2023-03-14T10:05:25;8.70;99.90
54168;DHT22;68429;50.958;3.592;2023-03-14T10:07:53;8.50;99.90
54168;DHT22;68429;50.958;3.592;2023-03-14T10:10:22;8.10;99.90
54168;DHT22;68429;50.958;3.592;2023-03-14T10:12:55;7.90;99.90
54168;DHT22;68429;50.958;3.592;2023-03-14T10:15:30;7.50;99.90
54168;DHT22;68429;50.958;3.592;2023-03-14T10:18:02;7.30;99.90
54168;DHT22;68429;50.958;3.592;2023-03-14T10:20:39;7.10;99.90
54168;DHT22;68429;50.958;3.592;2023-03-14T10:25:43;6.50;99.90
54168;DHT22;68429;50.958;3.592;2023-03-14T10:31:03;6.10;99.90
54168;DHT22;68429;50.958;3.592;2023-03-14T10:33:35;6.00;99.90
54168;DHT22;68429;50.958;3.592;2023-03-14T10:38:30;6.00;99.90
54168;DHT22;68429;50.958;3.592;2023-03-14T10:40:57;5.90;99.90
54168;DHT22;68429;50.958;3.592;2023-03-14T10:43:43;5.90;99.90
54168;DHT22;68429;50.958;3.592;2023-03-14T10:46:16;5.80;99.90
54168;DHT22;68429;50.958;3.592;2023-03-14T10:48:43;5.80;99.90
54168;DHT22;68429;50.958;3.592;2023-03-14T10:51:11;5.90;99.90
54168;DHT22;68429;50.958;3.592;2023-03-14T10:53:45;5.90;99.90
54168;DHT22;68429;50.958;3.592;2023-03-14T10:56:22;5.80;99.90
54168;DHT22;68429;50.958;3.592;2023-03-14T10:58:53;5.80;99.90
54168;DHT22;68429;50.958;3.592;2023-03-14T11:01:52;5.80;99.90
54168;DHT22;68429;50.958;3.592;2023-03-14T11:07:55;5.80;99.90
54168;DHT22;68429;50.958;3.592;2023-03-14T11:13:17;5.80;99.90
54168;DHT22;68429;50.958;3.592;2023-03-14T11:16:20;5.90;99.90
54168;DHT22;68429;50.958;3.592;2023-03-14T11:26:58;5.90;99.90
54168;DHT22;68429;50.958;3.592;2023-03-14T11:29:29;5.90;99.90
54168;DHT22;68429;50.958;3.592;2023-03-14T11:32:02;6.00;99.90
54168;DHT22;68429;50.958;3.592;2023-03-14T11:34:39;6.20;99.90
54168;DHT22;68429;50.958;3.592;2023-03-14T11:37:23;6.40;99.90
54168;DHT22;68429;50.958;3.592;2023-03-14T11:40:13;6.40;99.90
54168;DHT22;68429;50.958;3.592;2023-03-14T11:42:43;6.60;99.90
54168;DHT22;68429;50.958;3.592;2023-03-14T11:45:34;6.70;99.90
54168;DHT22;68429;50.958;3.592;2023-03-14T11:48:11;6.70;99.90
54168;DHT22;68429;50.958;3.592;2023-03-14T11:50:41;6.60;99.90
54168;DHT22;68429;50.958;3.592;2023-03-14T11:53:16;6.60;99.90
54168;DHT22;68429;50.958;3.592;2023-03-14T11:55:43;6.50;99.90
54168;DHT22;68429;50.958;3.592;2023-03-14T12:00:42;6.50;99.90
54168;DHT22;68429;50.958;3.592;2023-03-14T12:05:56;6.30;99.90
54168;DHT22;68429;50.958;3.592;2023-03-14T12:10:59;6.10;99.90
54168;DHT22;68429;50.958;3.592;2023-03-14T12:13:33;6.20;99.90
54168;DHT22;68429;50.958;3.592;2023-03-14T12:16:32;6.20;99.90
54168;DHT22;68429;50.958;3.592;2023-03-14T12:18:52;6.20;99.90
54168;DHT22;68429;50.958;3.592;2023-03-14T12:21:19;6.30;99.90
54168;DHT22;68429;50.958;3.592;2023-03-14T12:23:52;6.40;99.90
54168;DHT22;68429;50.958;3.592;2023-03-14T12:26:21;6.30;99.90
54168;DHT22;68429;50.958;3.592;2023-03-14T12:29:15;6.30;99.90
54168;DHT22;68429;50.958;3.592;2023-03-14T12:31:45;6.40;99.90
54168;DHT22;68429;50.958;3.592;2023-03-14T12:39:58;6.60;99.90
54168;DHT22;68429;50.958;3.592;2023-03-14T12:42:45;6.50;99.90
54168;DHT22;68429;50.958;3.592;2023-03-14T12:47:43;6.80;99.90
54168;DHT22;68429;50.958;3.592;2023-03-14T12:50:18;6.80;99.90
54168;DHT22;68429;50.958;3.592;2023-03-14T12:55:21;6.40;99.90
54168;DHT22;68429;50.958;3.592;2023-03-14T12:58:34;6.40;99.90
54168;DHT22;68429;50.958;3.592;2023-03-14T13:01:03;6.30;99.90
54168;DHT22;68429;50.958;3.592;2023-03-14T13:03:54;6.40;99.90
54168;DHT22;68429;50.958;3.592;2023-03-14T13:06:50;6.40;99.90
54168;DHT22;68429;50.958;3.592;2023-03-14T13:12:11;6.40;99.90
54168;DHT22;68429;50.958;3.592;2023-03-14T13:14:41;6.30;99.90
54168;DHT22;68429;50.958;3.592;2023-03-14T13:17:11;6.20;99.90
54168;DHT22;68429;50.958;3.592;2023-03-14T13:19:38;6.30;99.90
54168;DHT22;68429;50.958;3.592;2023-03-14T13:22:20;6.70;99.90
54168;DHT22;68429;50.958;3.592;2023-03-14T13:24:46;7.00;99.90
54168;DHT22;68429;50.958;3.592;2023-03-14T13:27:20;7.40;99.90
54168;DHT22;68429;50.958;3.592;2023-03-14T13:29:49;7.80;99.90
54168;DHT22;68429;50.958;3.592;2023-03-14T13:32:39;8.00;99.90
54168;DHT22;68429;50.958;3.592;2023-03-14T13:35:15;8.10;99.90
54168;DHT22;68429;50.958;3.592;2023-03-14T13:37:40;7.90;99.90
54168;DHT22;68429;50.958;3.592;2023-03-14T13:40:19;7.80;99.90
54168;DHT22;68429;50.958;3.592;2023-03-14T13:42:45;8.00;99.90
54168;DHT22;68429;50.958;3.592;2023-03-14T13:45:13;7.90;99.90
54168;DHT22;68429;50.958;3.592;2023-03-14T13:47:39;7.90;99.90
54168;DHT22;68429;50.958;3.592;2023-03-14T13:50:14;8.10;99.90
54168;DHT22;68429;50.958;3.592;2023-03-14T13:52:40;8.10;99.90
54168;DHT22;68429;50.958;3.592;2023-03-14T13:55:13;8.00;99.90
54168;DHT22;68429;50.958;3.592;2023-03-14T13:57:48;7.50;99.90
54168;DHT22;68429;50.958;3.592;2023-03-14T14:00:32;7.10;99.90
54168;DHT22;68429;50.958;3.592;2023-03-14T14:02:58;6.70;99.90
54168;DHT22;68429;50.958;3.592;2023-03-14T14:05:29;6.40;99.90
54168;DHT22;68429;50.958;3.592;2023-03-14T14:07:55;6.20;99.90
54168;DHT22;68429;50.958;3.592;2023-03-14T14:10:21;6.10;99.90
54168;DHT22;68429;50.958;3.592;2023-03-14T14:13:05;6.00;99.90
54168;DHT22;68429;50.958;3.592;2023-03-14T14:15:35;6.20;99.90
54168;DHT22;68429;50.958;3.592;2023-03-14T14:18:05;6.20;99.90
54168;DHT22;68429;50.958;3.592;2023-03-14T14:23:10;6.60;99.90
54168;DHT22;68429;50.958;3.592;2023-03-14T14:25:37;6.60;99.90
54168;DHT22;68429;50.958;3.592;2023-03-14T14:28:24;6.50;99.90
54168;DHT22;68429;50.958;3.592;2023-03-14T14:33:38;6.70;99.90
54168;DHT22;68429;50.958;3.592;2023-03-14T14:36:11;6.80;99.90
54168;DHT22;68429;50.958;3.592;2023-03-14T14:38:38;6.70;99.90
54168;DHT22;68429;50.958;3.592;2023-03-14T14:41:03;6.90;99.90
54168;DHT22;68429;50.958;3.592;2023-03-14T14:43:32;7.20;99.90
54168;DHT22;68429;50.958;3.592;2023-03-14T14:45:59;7.40;99.90
54168;DHT22;68429;50.958;3.592;2023-03-14T14:48:27;7.70;99.90
54168;DHT22;68429;50.958;3.592;2023-03-14T14:51:04;7.60;99.90
54168;DHT22;68429;50.958;3.592;2023-03-14T14:53:42;7.80;99.90
54168;DHT22;68429;50.958;3.592;2023-03-14T14:56:18;8.00;99.90
54168;DHT22;68429;50.958;3.592;2023-03-14T14:58:46;8.00;99.90
54168;DHT22;68429;50.958;3.592;2023-03-14T15:01:21;8.20;99.90
54168;DHT22;68429;50.958;3.592;2023-03-14T15:03:52;8.30;99.90
54168;DHT22;68429;50.958;3.592;2023-03-14T15:06:19;8.20;99.90
54168;DHT22;68429;50.958;3.592;2023-03-14T15:08:46;7.90;99.90
54168;DHT22;68429;50.958;3.592;2023-03-14T15:11:18;7.50;99.90
54168;DHT22;68429;50.958;3.592;2023-03-14T15:13:44;7.60;99.90
54168;DHT22;68429;50.958;3.592;2023-03-14T15:16:18;7.40;99.90
54168;DHT22;68429;50.958;3.592;2023-03-14T15:18:47;7.30;99.90
54168;DHT22;68429;50.958;3.592;2023-03-14T15:21:15;7.30;99.90
54168;DHT22;68429;50.958;3.592;2023-03-14T15:23:41;7.40;99.90
54168;DHT22;68429;50.958;3.592;2023-03-14T15:26:18;7.40;99.90
54168;DHT22;68429;50.958;3.592;2023-03-14T15:28:44;7.30;99.90
54168;DHT22;68429;50.958;3.592;2023-03-14T15:31:12;7.30;99.90
54168;DHT22;68429;50.958;3.592;2023-03-14T15:33:38;7.30;99.90
54168;DHT22;68429;50.958;3.592;2023-03-14T15:36:06;7.20;99.90
54168;DHT22;68429;50.958;3.592;2023-03-14T15:38:32;7.20;99.90
54168;DHT22;68429;50.958;3.592;2023-03-14T15:40:57;7.10;99.90
54168;DHT22;68429;50.958;3.592;2023-03-14T15:43:23;7.10;99.90
54168;DHT22;68429;50.958;3.592;2023-03-14T15:45:49;7.30;99.90
54168;DHT22;68429;50.958;3.592;2023-03-14T15:48:20;7.20;99.90
54168;DHT22;68429;50.958;3.592;2023-03-14T15:50:46;7.30;99.90
54168;DHT22;68429;50.958;3.592;2023-03-14T15:53:13;7.30;99.90
54168;DHT22;68429;50.958;3.592;2023-03-14T15:55:39;7.20;99.90
54168;DHT22;68429;50.958;3.592;2023-03-14T15:58:04;7.60;99.90
54168;DHT22;68429;50.958;3.592;2023-03-14T16:00:30;7.70;99.90
54168;DHT22;68429;50.958;3.592;2023-03-14T16:02:57;7.50;99.90
54168;DHT22;68429;50.958;3.592;2023-03-14T16:05:23;7.60;99.90
54168;DHT22;68429;50.958;3.592;2023-03-14T16:07:48;7.60;99.90
54168;DHT22;68429;50.958;3.592;2023-03-14T16:10:15;7.70;99.90
54168;DHT22;68429;50.958;3.592;2023-03-14T16:12:41;7.50;99.90
54168;DHT22;68429;50.958;3.592;2023-03-14T16:15:08;7.40;99.90
54168;DHT22;68429;50.958;3.592;2023-03-14T16:17:35;7.40;99.90
54168;DHT22;68429;50.958;3.592;2023-03-14T16:20:03;7.60;99.90
54168;DHT22;68429;50.958;3.592;2023-03-14T16:22:29;7.60;99.90
54168;DHT22;68429;50.958;3.592;2023-03-14T16:24:58;7.40;99.90
54168;DHT22;68429;50.958;3.592;2023-03-14T16:27:24;7.20;99.90
54168;DHT22;68429;50.958;3.592;2023-03-14T16:29:49;7.20;99.90
54168;DHT22;68429;50.958;3.592;2023-03-14T16:32:15;7.10;99.90
54168;DHT22;68429;50.958;3.592;2023-03-14T16:34:41;6.80;99.90
54168;DHT22;68429;50.958;3.592;2023-03-14T16:37:06;6.80;99.90
54168;DHT22;68429;50.958;3.592;2023-03-14T16:39:32;6.70;99.90
54168;DHT22;68429;50.958;3.592;2023-03-14T16:41:58;6.80;99.90
54168;DHT22;68429;50.958;3.592;2023-03-14T16:44:24;7.00;99.90
54168;DHT22;68429;50.958;3.592;2023-03-14T16:46:50;7.00;99.90
54168;DHT22;68429;50.958;3.592;2023-03-14T16:49:16;7.00;99.90
54168;DHT22;68429;50.958;3.592;2023-03-14T16:51:41;6.80;99.90
54168;DHT22;68429;50.958;3.592;2023-03-14T16:54:08;6.80;99.90
54168;DHT22;68429;50.958;3.592;2023-03-14T16:56:34;6.80;99.90
54168;DHT22;68429;50.958;3.592;2023-03-14T16:59:00;6.70;99.90